createdAt,value
2016-09-08T00:00:45.924Z,62.34
2016-09-08T00:01:45.557Z,62.05
2016-09-08T00:02:45.503Z,62.24
2016-09-08T00:03:45.438Z,62.05
2016-09-08T00:04:45.388Z,62.24
2016-09-08T00:05:45.322Z,62.24
2016-09-08T00:06:45.263Z,62.73
2016-09-08T00:07:45.524Z,62.53
2016-09-08T00:08:45.145Z,62.73
2016-09-08T00:09:45.089Z,62.82
2016-09-08T00:10:45.032Z,62.63
2016-09-08T00:11:44.971Z,62.73
2016-09-08T00:12:44.915Z,62.24
2016-09-08T00:13:44.853Z,62.53
2016-09-08T00:14:44.796Z,62.15
2016-09-08T00:15:44.734Z,62.73
2016-09-08T00:16:44.673Z,62.15
2016-09-08T00:17:44.618Z,62.24
2016-09-08T00:18:44.559Z,62.73
2016-09-08T00:19:44.498Z,62.63
2016-09-08T00:20:44.436Z,62.44
2016-09-08T00:21:44.381Z,62.44
2016-09-08T00:22:44.319Z,62.82
2016-09-08T00:23:44.261Z,62.34
2016-09-08T00:24:44.201Z,62.63
2016-09-08T00:25:44.460Z,62.53
2016-09-08T00:26:44.110Z,62.73
2016-09-08T00:27:44.029Z,62.73
2016-09-08T00:28:43.967Z,62.63
2016-09-08T00:29:43.919Z,63.02
2016-09-08T00:30:44.157Z,62.53
2016-09-08T00:31:43.795Z,62.92
2016-09-08T00:32:43.741Z,62.73
2016-09-08T00:33:43.675Z,62.63
2016-09-08T00:34:43.617Z,63.21
2016-09-08T00:35:43.560Z,63.21
2016-09-08T00:36:43.505Z,63.02
2016-09-08T00:37:43.440Z,62.92
2016-09-08T00:38:43.682Z,63.31
2016-09-08T00:39:43.322Z,62.92
2016-09-08T00:40:43.264Z,62.63
2016-09-08T00:41:43.205Z,62.53
2016-09-08T00:42:43.144Z,62.73
2016-09-08T00:43:43.088Z,63.31
2016-09-08T00:44:43.352Z,62.73
2016-09-08T00:45:42.968Z,62.53
2016-09-08T00:46:42.910Z,62.92
2016-09-08T00:47:42.905Z,62.92
2016-09-08T00:48:42.793Z,63.02
2016-09-08T00:49:42.732Z,62.44
2016-09-08T00:50:42.674Z,62.92
2016-09-08T00:51:42.616Z,62.73
2016-09-08T00:52:42.873Z,62.73
2016-09-08T00:53:42.811Z,62.63
2016-09-08T00:54:42.441Z,62.92
2016-09-08T00:55:42.384Z,62.92
2016-09-08T00:56:42.623Z,62.92
2016-09-08T00:57:42.266Z,62.82
2016-09-08T00:58:42.203Z,63.02
2016-09-08T00:59:42.154Z,62.92
2016-09-08T01:00:42.085Z,62.82
2016-09-08T01:01:42.026Z,62.63
2016-09-08T01:02:41.973Z,63.02
2016-09-08T01:03:41.911Z,63.02
2016-09-08T01:04:41.851Z,62.92
2016-09-08T01:05:41.793Z,62.44
2016-09-08T01:06:41.732Z,62.53
2016-09-08T01:07:41.706Z,62.53
2016-09-08T01:08:41.612Z,62.53
2016-09-08T01:09:41.555Z,63.02
2016-09-08T01:10:41.501Z,63.21
2016-09-08T01:11:41.437Z,63.21
2016-09-08T01:12:41.383Z,63.11
2016-09-08T01:13:41.320Z,62.92
2016-09-08T01:14:41.265Z,63.02
2016-09-08T01:15:41.210Z,62.82
2016-09-08T01:16:41.145Z,63.02
2016-09-08T01:17:41.085Z,62.92
2016-09-08T01:18:41.029Z,63.02
2016-09-08T01:19:40.969Z,62.82
2016-09-08T01:20:40.909Z,62.89
2016-09-08T01:21:40.850Z,62.92
2016-09-08T01:22:40.792Z,62.73
2016-09-08T01:23:40.735Z,62.92
2016-09-08T01:24:40.672Z,63.21
2016-09-08T01:25:40.624Z,63.31
2016-09-08T01:26:40.557Z,62.73
2016-09-08T01:27:40.496Z,63.08
2016-09-08T01:28:40.438Z,62.73
2016-09-08T01:29:40.376Z,62.6
2016-09-08T01:30:40.323Z,62.89
2016-09-08T01:31:40.261Z,62.53
2016-09-08T01:32:40.203Z,62.63
2016-09-08T01:33:40.142Z,62.92
2016-09-08T01:34:40.084Z,63.37
2016-09-08T01:35:40.331Z,63.21
2016-09-08T01:36:39.968Z,63.08
2016-09-08T01:37:39.905Z,62.7
2016-09-08T01:38:39.848Z,62.7
2016-09-08T01:39:39.787Z,62.92
2016-09-08T01:40:39.735Z,62.5
2016-09-08T01:41:39.671Z,62.92
2016-09-08T01:42:39.623Z,62.7
2016-09-08T01:43:39.555Z,62.89
2016-09-08T01:44:39.495Z,62.98
2016-09-08T01:45:39.446Z,62.82
2016-09-08T01:46:39.375Z,63.08
2016-09-08T01:47:39.324Z,62.98
2016-09-08T01:48:39.258Z,62.98
2016-09-08T01:49:39.199Z,63.08
2016-09-08T01:50:39.139Z,63.08
2016-09-08T01:51:39.082Z,62.79
2016-09-08T01:52:39.023Z,63.08
2016-09-08T01:53:38.966Z,63.08
2016-09-08T01:54:38.911Z,62.89
2016-09-08T01:55:38.848Z,62.89
2016-09-08T01:56:38.786Z,63.31
2016-09-08T01:57:38.729Z,62.98
2016-09-08T01:58:38.667Z,62.79
2016-09-08T01:59:38.612Z,63.08
2016-09-08T02:00:38.551Z,62.89
2016-09-08T02:01:38.492Z,62.98
2016-09-08T02:02:38.436Z,63.37
2016-09-08T02:03:38.374Z,62.92
2016-09-08T02:04:38.322Z,63.08
2016-09-08T02:05:38.258Z,62.7
2016-09-08T02:06:38.201Z,62.79
2016-09-08T02:07:38.140Z,63.08
2016-09-08T02:08:38.085Z,62.79
2016-09-08T02:09:38.025Z,62.89
2016-09-08T02:10:37.960Z,62.79
2016-09-08T02:11:37.904Z,62.79
2016-09-08T02:12:37.845Z,62.79
2016-09-08T02:13:37.785Z,62.79
2016-09-08T02:14:37.726Z,62.79
2016-09-08T02:15:37.670Z,62.79
2016-09-08T02:16:37.611Z,62.79
2016-09-08T02:17:37.549Z,62.89
2016-09-08T02:18:39.519Z,63.08
2016-09-08T02:19:37.429Z,62.98
2016-09-08T02:20:37.374Z,62.89
2016-09-08T02:21:37.319Z,62.89
2016-09-08T02:22:37.258Z,62.89
2016-09-08T02:23:37.197Z,62.98
2016-09-08T02:24:37.139Z,63.08
2016-09-08T02:25:37.079Z,62.79
2016-09-08T02:26:37.024Z,62.7
2016-09-08T02:27:36.960Z,63.76
2016-09-08T02:28:36.902Z,63.76
2016-09-08T02:29:36.842Z,64.34
2016-09-08T02:30:36.784Z,64.43
2016-09-08T02:31:36.728Z,64.34
2016-09-08T02:32:36.665Z,63.95
2016-09-08T02:33:36.607Z,64.05
2016-09-08T02:34:36.549Z,63.76
2016-09-08T02:35:36.490Z,63.47
2016-09-08T02:36:36.431Z,63.56
2016-09-08T02:37:36.371Z,63.56
2016-09-08T02:38:36.313Z,63.18
2016-09-08T02:39:36.253Z,63.37
2016-09-08T02:40:36.198Z,63.76
2016-09-08T02:41:36.135Z,63.47
2016-09-08T02:42:36.074Z,63.47
2016-09-08T02:43:36.021Z,63.18
2016-09-08T02:44:35.959Z,63.47
2016-09-08T02:45:35.900Z,63.28
2016-09-08T02:46:35.837Z,63.56
2016-09-08T02:47:35.782Z,63.47
2016-09-08T02:48:35.723Z,63.37
2016-09-08T02:49:35.664Z,63.56
2016-09-08T02:50:35.926Z,63.56
2016-09-08T02:51:35.545Z,63.37
2016-09-08T02:52:35.488Z,63.47
2016-09-08T02:53:35.430Z,63.56
2016-09-08T02:54:35.377Z,63.56
2016-09-08T02:55:35.312Z,63.56
2016-09-08T02:56:35.249Z,63.47
2016-09-08T02:57:35.194Z,63.37
2016-09-08T02:58:35.130Z,63.28
2016-09-08T02:59:35.076Z,63.37
2016-09-08T03:00:35.024Z,63.47
2016-09-08T03:01:34.953Z,63.47
2016-09-08T03:02:34.898Z,63.18
2016-09-08T03:03:34.840Z,63.47
2016-09-08T03:04:34.780Z,64.14
2016-09-08T03:05:34.723Z,63.76
2016-09-08T03:06:34.661Z,64.14
2016-09-08T03:07:34.601Z,63.95
2016-09-08T03:08:34.543Z,63.95
2016-09-08T03:09:34.490Z,63.95
2016-09-08T03:10:34.427Z,63.85
2016-09-08T03:11:34.368Z,63.95
2016-09-08T03:12:34.309Z,63.76
2016-09-08T03:13:34.549Z,64.24
2016-09-08T03:14:34.190Z,64.34
2016-09-08T03:15:34.129Z,64.24
2016-09-08T03:16:34.070Z,64.34
2016-09-08T03:17:34.321Z,64.24
2016-09-08T03:18:33.954Z,63.95
2016-09-08T03:19:33.895Z,64.34
2016-09-08T03:20:33.835Z,64.24
2016-09-08T03:21:33.775Z,64.34
2016-09-08T03:22:34.020Z,64.24
2016-09-08T03:23:33.659Z,64.24
2016-09-08T03:24:33.599Z,64.43
2016-09-08T03:25:33.538Z,64.34
2016-09-08T03:26:33.482Z,64.34
2016-09-08T03:27:33.419Z,64.82
2016-09-08T03:28:33.563Z,64.92
2016-09-08T03:29:33.302Z,64.43
2016-09-08T03:30:33.243Z,64.53
2016-09-08T03:31:33.182Z,64.82
2016-09-08T03:32:33.126Z,64.72
2016-09-08T03:33:33.066Z,64.72
2016-09-08T03:34:33.009Z,65.01
2016-09-08T03:35:32.949Z,65.11
2016-09-08T03:36:32.887Z,64.72
2016-09-08T03:37:32.831Z,64.63
2016-09-08T03:38:32.772Z,64.82
2016-09-08T03:39:32.713Z,64.63
2016-09-08T03:40:32.960Z,64.43
2016-09-08T03:41:32.595Z,64.34
2016-09-08T03:42:32.537Z,64.43
2016-09-08T03:43:32.477Z,64.63
2016-09-08T03:44:32.424Z,64.34
2016-09-08T03:45:32.360Z,64.63
2016-09-08T03:46:32.303Z,64.63
2016-09-08T03:47:32.243Z,64.82
2016-09-08T03:48:32.185Z,64.63
2016-09-08T03:49:32.125Z,65.4
2016-09-08T03:50:32.065Z,65.01
2016-09-08T03:51:32.014Z,65.2
2016-09-08T03:52:31.945Z,65.2
2016-09-08T03:53:31.888Z,65.11
2016-09-08T03:54:31.826Z,65.11
2016-09-08T03:55:31.770Z,64.82
2016-09-08T03:56:31.713Z,64.92
2016-09-08T03:57:31.650Z,65.3
2016-09-08T03:58:31.594Z,65.3
2016-09-08T03:59:31.538Z,65.3
2016-09-08T04:00:31.480Z,65.11
2016-09-08T04:01:31.418Z,65.5
2016-09-08T04:02:31.357Z,65.2
2016-09-08T04:03:31.305Z,65.2
2016-09-08T04:04:31.239Z,65.2
2016-09-08T04:05:31.178Z,65.11
2016-09-08T04:06:31.120Z,65.11
2016-09-08T04:07:31.069Z,65.5
2016-09-08T04:08:31.003Z,65.59
2016-09-08T04:09:30.947Z,65.01
2016-09-08T04:10:30.888Z,65.01
2016-09-08T04:11:30.825Z,65.59
2016-09-08T04:12:30.765Z,65.3
2016-09-08T04:13:30.707Z,64.92
2016-09-08T04:14:30.654Z,64.43
2016-09-08T04:15:30.588Z,64.43
2016-09-08T04:16:30.530Z,64.63
2016-09-08T04:17:30.471Z,64.53
2016-09-08T04:18:30.411Z,64.92
2016-09-08T04:19:30.354Z,64.72
2016-09-08T04:20:30.295Z,64.92
2016-09-08T04:21:30.237Z,64.92
2016-09-08T04:22:30.174Z,65.01
2016-09-08T04:23:30.417Z,64.63
2016-09-08T04:24:30.056Z,65.01
2016-09-08T04:25:29.996Z,64.53
2016-09-08T04:26:30.252Z,64.82
2016-09-08T04:27:29.888Z,65.01
2016-09-08T04:28:29.823Z,65.01
2016-09-08T04:29:29.761Z,64.63
2016-09-08T04:30:29.702Z,64.92
2016-09-08T04:31:29.643Z,64.92
2016-09-08T04:32:29.580Z,64.72
2016-09-08T04:33:29.528Z,64.63
2016-09-08T04:34:29.465Z,64.72
2016-09-08T04:35:29.410Z,64.92
2016-09-08T04:36:29.658Z,64.92
2016-09-08T04:37:29.291Z,64.82
2016-09-08T04:38:29.230Z,64.43
2016-09-08T04:39:29.212Z,64.34
2016-09-08T04:40:29.186Z,64.53
2016-09-08T04:41:29.050Z,64.82
2016-09-08T04:42:28.999Z,64.82
2016-09-08T04:43:28.938Z,65.11
2016-09-08T04:44:28.876Z,65.01
2016-09-08T04:45:28.815Z,64.92
2016-09-08T04:46:28.755Z,65.11
2016-09-08T04:47:28.697Z,65.11
2016-09-08T04:48:28.634Z,65.11
2016-09-08T04:49:28.584Z,65.5
2016-09-08T04:50:28.519Z,65.4
2016-09-08T04:51:28.464Z,65.3
2016-09-08T04:52:28.402Z,65.2
2016-09-08T04:53:28.344Z,65.2
2016-09-08T04:54:28.284Z,65.2
2016-09-08T04:55:28.223Z,65.5
2016-09-08T04:56:28.167Z,65.59
2016-09-08T04:57:28.106Z,65.3
2016-09-08T04:58:28.049Z,65.59
2016-09-08T04:59:28.000Z,65.4
2016-09-08T05:00:27.937Z,65.69
2016-09-08T05:01:27.874Z,65.59
2016-09-08T05:02:27.814Z,65.59
2016-09-08T05:03:27.753Z,65.4
2016-09-08T05:04:27.695Z,65.59
2016-09-08T05:05:27.634Z,65.5
2016-09-08T05:06:27.573Z,65.4
2016-09-08T05:07:27.517Z,65.59
2016-09-08T05:08:27.457Z,65.3
2016-09-08T05:09:27.397Z,65.59
2016-09-08T05:10:27.338Z,65.4
2016-09-08T05:11:27.287Z,65.5
2016-09-08T05:12:27.220Z,65.5
2016-09-08T05:13:27.169Z,65.4
2016-09-08T05:14:27.103Z,65.59
2016-09-08T05:15:27.044Z,65.4
2016-09-08T05:16:26.987Z,65.4
2016-09-08T05:17:26.925Z,65.4
2016-09-08T05:18:27.169Z,65.59
2016-09-08T05:19:26.810Z,65.59
2016-09-08T05:20:26.748Z,65.69
2016-09-08T05:21:26.690Z,65.98
2016-09-08T05:22:26.633Z,65.4
2016-09-08T05:23:26.571Z,65.88
2016-09-08T05:24:26.511Z,65.2
2016-09-08T05:25:26.453Z,65.69
2016-09-08T05:26:26.394Z,65.3
2016-09-08T05:27:26.337Z,65.4
2016-09-08T05:28:26.276Z,65.69
2016-09-08T05:29:26.217Z,66.08
2016-09-08T05:30:26.156Z,65.88
2016-09-08T05:31:26.098Z,65.4
2016-09-08T05:32:26.244Z,66.08
2016-09-08T05:33:25.980Z,65.78
2016-09-08T05:34:25.921Z,65.88
2016-09-08T05:35:25.861Z,65.88
2016-09-08T05:36:25.804Z,65.78
2016-09-08T05:37:25.741Z,65.88
2016-09-08T05:38:25.685Z,65.78
2016-09-08T05:39:25.625Z,66.08
2016-09-08T05:40:25.869Z,65.69
2016-09-08T05:41:25.510Z,65.69
2016-09-08T05:42:25.451Z,65.69
2016-09-08T05:43:25.385Z,65.69
2016-09-08T05:44:25.328Z,65.78
2016-09-08T05:45:25.271Z,65.78
2016-09-08T05:46:25.210Z,65.78
2016-09-08T05:47:25.149Z,65.78
2016-09-08T05:48:25.090Z,65.69
2016-09-08T05:49:25.034Z,65.69
2016-09-08T05:50:24.976Z,65.69
2016-09-08T05:51:24.916Z,65.85
2016-09-08T05:52:24.857Z,66.08
2016-09-08T05:53:24.800Z,65.47
2016-09-08T05:54:24.741Z,65.85
2016-09-08T05:55:24.675Z,65.95
2016-09-08T05:56:24.622Z,65.88
2016-09-08T05:57:24.871Z,65.78
2016-09-08T05:58:24.504Z,65.75
2016-09-08T05:59:24.447Z,65.98
2016-09-08T06:00:24.480Z,65.98
2016-09-08T06:01:24.325Z,65.98
2016-09-08T06:02:24.283Z,65.88
2016-09-08T06:03:24.209Z,65.98
2016-09-08T06:04:24.148Z,65.95
2016-09-08T06:05:24.086Z,65.88
2016-09-08T06:06:24.030Z,65.5
2016-09-08T06:07:23.973Z,65.78
2016-09-08T06:08:23.911Z,65.98
2016-09-08T06:09:23.851Z,65.78
2016-09-08T06:10:24.094Z,65.78
2016-09-08T06:11:23.741Z,65.85
2016-09-08T06:12:23.671Z,65.88
2016-09-08T06:13:23.618Z,66.08
2016-09-08T06:14:23.554Z,65.69
2016-09-08T06:15:23.498Z,65.69
2016-09-08T06:16:23.436Z,65.98
2016-09-08T06:17:23.377Z,65.78
2016-09-08T06:18:23.317Z,66.08
2016-09-08T06:19:28.931Z,66.14
2016-09-08T06:20:23.201Z,66.14
2016-09-08T06:21:23.139Z,65.98
2016-09-08T06:22:23.085Z,65.98
2016-09-08T06:23:23.021Z,65.95
2016-09-08T06:24:22.965Z,65.98
2016-09-08T06:25:23.206Z,65.98
2016-09-08T06:26:22.854Z,66.08
2016-09-08T06:27:22.786Z,66.27
2016-09-08T06:28:23.043Z,65.78
2016-09-08T06:29:22.669Z,66.08
2016-09-08T06:30:22.610Z,66.24
2016-09-08T06:31:22.546Z,66.08
2016-09-08T06:32:22.491Z,65.98
2016-09-08T06:33:22.429Z,65.78
2016-09-08T06:34:22.370Z,66.27
2016-09-08T06:35:22.315Z,66.27
2016-09-08T06:36:22.263Z,66.27
2016-09-08T06:37:22.190Z,66.36
2016-09-08T06:38:22.133Z,66.56
2016-09-08T06:39:22.074Z,66.56
2016-09-08T06:40:22.016Z,66.08
2016-09-08T06:41:21.959Z,66.46
2016-09-08T06:42:21.897Z,66.46
2016-09-08T06:43:21.845Z,66.53
2016-09-08T06:44:21.779Z,66.46
2016-09-08T06:45:21.731Z,66.56
2016-09-08T06:46:21.661Z,66.46
2016-09-08T06:47:21.903Z,66.46
2016-09-08T06:48:21.857Z,66.56
2016-09-08T06:49:21.486Z,66.17
2016-09-08T06:50:21.426Z,66.27
2016-09-08T06:51:21.366Z,66.36
2016-09-08T06:52:21.315Z,66.46
2016-09-08T06:53:21.255Z,66.56
2016-09-08T06:54:21.194Z,66.46
2016-09-08T06:55:21.440Z,66.66
2016-09-08T06:56:21.076Z,66.66
2016-09-08T06:57:21.021Z,66.66
2016-09-08T06:58:20.953Z,66.66
2016-09-08T06:59:21.199Z,66.85
2016-09-08T07:00:20.833Z,66.66
2016-09-08T07:01:20.798Z,66.85
2016-09-08T07:02:20.718Z,66.66
2016-09-08T07:03:20.657Z,66.85
2016-09-08T07:04:20.604Z,66.56
2016-09-08T07:05:20.545Z,66.56
2016-09-08T07:06:20.480Z,66.66
2016-09-08T07:07:20.425Z,66.46
2016-09-08T07:08:20.363Z,66.75
2016-09-08T07:09:20.304Z,66.36
2016-09-08T07:10:20.256Z,66.75
2016-09-08T07:11:20.184Z,66.75
2016-09-08T07:12:20.649Z,66.75
2016-09-08T07:13:20.068Z,66.75
2016-09-08T07:14:20.019Z,66.85
2016-09-08T07:15:19.962Z,66.36
2016-09-08T07:16:19.885Z,66.56
2016-09-08T07:17:20.140Z,66.46
2016-09-08T07:18:19.771Z,66.36
2016-09-08T07:19:19.711Z,66.46
2016-09-08T07:20:19.653Z,66.56
2016-09-08T07:21:19.593Z,66.56
2016-09-08T07:22:19.536Z,66.66
2016-09-08T07:23:19.475Z,66.66
2016-09-08T07:24:19.425Z,66.75
2016-09-08T07:25:19.356Z,66.85
2016-09-08T07:26:19.306Z,66.66
2016-09-08T07:27:19.563Z,66.66
2016-09-08T07:28:19.180Z,66.66
2016-09-08T07:29:19.137Z,66.66
2016-09-08T07:30:19.060Z,66.75
2016-09-08T07:31:19.006Z,66.85
2016-09-08T07:32:18.945Z,66.85
2016-09-08T07:33:19.187Z,67.52
2016-09-08T07:34:18.825Z,66.75
2016-09-08T07:35:18.771Z,66.94
2016-09-08T07:36:18.717Z,66.85
2016-09-08T07:37:18.657Z,66.66
2016-09-08T07:38:18.609Z,66.85
2016-09-08T07:39:18.536Z,66.66
2016-09-08T07:40:18.474Z,66.66
2016-09-08T07:41:18.414Z,66.75
2016-09-08T07:42:18.355Z,66.66
2016-09-08T07:43:18.802Z,66.75
2016-09-08T07:44:18.243Z,67.04
2016-09-08T07:45:18.177Z,66.66
2016-09-08T07:46:18.434Z,66.75
2016-09-08T07:47:18.374Z,66.75
2016-09-08T07:48:18.004Z,66.85
2016-09-08T07:49:17.946Z,66.85
2016-09-08T07:50:17.893Z,66.75
2016-09-08T07:51:18.136Z,67.04
2016-09-08T07:52:17.769Z,66.85
2016-09-08T07:53:17.705Z,66.75
2016-09-08T07:54:17.646Z,66.85
2016-09-08T07:55:17.588Z,66.85
2016-09-08T07:56:17.553Z,66.66
2016-09-08T07:57:17.468Z,66.85
2016-09-08T07:58:17.410Z,66.75
2016-09-08T07:59:17.355Z,66.85
2016-09-08T08:00:17.299Z,67.24
2016-09-08T08:01:17.243Z,67.14
2016-09-08T08:02:17.497Z,67.33
2016-09-08T08:03:17.416Z,67.24
2016-09-08T08:04:17.066Z,67.24
2016-09-08T08:05:17.303Z,67.14
2016-09-08T08:06:16.939Z,66.85
2016-09-08T08:07:16.891Z,67.62
2016-09-08T08:08:17.031Z,66.75
2016-09-08T08:09:16.764Z,67.14
2016-09-08T08:10:16.704Z,66.94
2016-09-08T08:11:16.954Z,66.75
2016-09-08T08:12:17.092Z,66.75
2016-09-08T08:13:16.544Z,66.75
2016-09-08T08:14:16.467Z,66.66
2016-09-08T08:15:16.405Z,66.66
2016-09-08T08:16:16.367Z,66.66
2016-09-08T08:17:16.287Z,66.56
2016-09-08T08:18:16.237Z,66.46
2016-09-08T08:19:16.179Z,66.66
2016-09-08T08:20:16.416Z,66.66
2016-09-08T08:21:16.361Z,66.75
2016-09-08T08:22:16.000Z,66.66
2016-09-08T08:23:15.933Z,66.56
2016-09-08T08:24:15.877Z,66.46
2016-09-08T08:25:15.826Z,66.46
2016-09-08T08:26:15.756Z,66.66
2016-09-08T08:27:15.699Z,66.66
2016-09-08T08:28:15.644Z,66.46
2016-09-08T08:29:15.600Z,66.46
2016-09-08T08:30:15.523Z,66.56
2016-09-08T08:31:15.464Z,66.46
2016-09-08T08:32:15.418Z,66.46
2016-09-08T08:33:15.357Z,66.46
2016-09-08T08:34:15.591Z,66.56
2016-09-08T08:35:15.273Z,66.36
2016-09-08T08:36:15.169Z,66.66
2016-09-08T08:37:15.110Z,66.56
2016-09-08T08:38:15.056Z,66.46
2016-09-08T08:39:15.504Z,66.66
2016-09-08T08:40:15.248Z,66.56
2016-09-08T08:41:14.876Z,66.66
2016-09-08T08:42:15.017Z,66.46
2016-09-08T08:43:14.762Z,66.36
2016-09-08T08:44:14.694Z,66.36
2016-09-08T08:45:14.663Z,66.36
2016-09-08T08:46:14.578Z,66.75
2016-09-08T08:47:14.832Z,66.36
2016-09-08T08:48:14.461Z,66.66
2016-09-08T08:49:14.402Z,66.56
2016-09-08T08:50:14.352Z,66.36
2016-09-08T08:51:14.287Z,66.46
2016-09-08T08:52:14.227Z,66.36
2016-09-08T08:53:14.169Z,66.36
2016-09-08T08:54:14.410Z,66.56
2016-09-08T08:55:14.049Z,66.66
2016-09-08T08:56:13.988Z,66.46
2016-09-08T08:57:13.928Z,66.36
2016-09-08T08:58:13.869Z,66.36
2016-09-08T08:59:13.811Z,66.85
2016-09-08T09:00:13.754Z,66.75
2016-09-08T09:01:14.005Z,66.94
2016-09-08T09:02:13.634Z,66.36
2016-09-08T09:03:13.579Z,66.75
2016-09-08T09:04:13.528Z,66.75
2016-09-08T09:05:13.462Z,66.56
2016-09-08T09:06:13.404Z,66.75
2016-09-08T09:07:13.402Z,66.94
2016-09-08T09:08:13.610Z,66.94
2016-09-08T09:09:13.221Z,66.94
2016-09-08T09:10:13.166Z,66.56
2016-09-08T09:11:13.106Z,66.56
2016-09-08T09:12:13.353Z,66.85
2016-09-08T09:13:13.289Z,66.66
2016-09-08T09:14:12.933Z,66.66
2016-09-08T09:15:12.869Z,66.36
2016-09-08T09:16:12.815Z,66.36
2016-09-08T09:17:12.750Z,66.66
2016-09-08T09:18:12.704Z,66.56
2016-09-08T09:19:12.640Z,66.66
2016-09-08T09:20:12.571Z,66.56
2016-09-08T09:21:12.514Z,66.46
2016-09-08T09:22:12.454Z,66.46
2016-09-08T09:23:12.400Z,66.85
2016-09-08T09:24:12.338Z,66.56
2016-09-08T09:25:12.281Z,66.46
2016-09-08T09:26:12.224Z,66.75
2016-09-08T09:27:12.164Z,66.85
2016-09-08T09:28:12.100Z,66.85
2016-09-08T09:29:12.042Z,66.46
2016-09-08T09:30:11.994Z,66.17
2016-09-08T09:31:11.929Z,66.17
2016-09-08T09:32:11.874Z,66.08
2016-09-08T09:33:12.109Z,66.46
2016-09-08T09:34:11.746Z,66.36
2016-09-08T09:35:11.693Z,66.56
2016-09-08T09:36:11.945Z,66.66
2016-09-08T09:37:11.572Z,66.46
2016-09-08T09:38:11.514Z,66.56
2016-09-08T09:39:11.455Z,66.56
2016-09-08T09:40:11.391Z,66.46
2016-09-08T09:41:11.339Z,66.36
2016-09-08T09:42:11.577Z,66.36
2016-09-08T09:43:11.219Z,66.46
2016-09-08T09:44:11.157Z,66.08
2016-09-08T09:45:11.108Z,66.08
2016-09-08T09:46:11.045Z,66.36
2016-09-08T09:47:10.977Z,66.08
2016-09-08T09:48:10.930Z,66.27
2016-09-08T09:49:10.863Z,65.78
2016-09-08T09:50:10.817Z,66.27
2016-09-08T09:51:11.060Z,65.78
2016-09-08T09:52:10.686Z,65.69
2016-09-08T09:53:10.930Z,65.78
2016-09-08T09:54:10.567Z,65.98
2016-09-08T09:55:10.522Z,65.88
2016-09-08T09:56:10.460Z,65.88
2016-09-08T09:57:10.409Z,66.08
2016-09-08T09:58:10.345Z,66.08
2016-09-08T09:59:10.272Z,65.69
2016-09-08T10:00:10.223Z,65.69
2016-09-08T10:01:10.173Z,65.69
2016-09-08T10:02:10.110Z,65.78
2016-09-08T10:03:10.037Z,65.4
2016-09-08T10:04:09.978Z,65.69
2016-09-08T10:05:09.932Z,65.69
2016-09-08T10:06:09.863Z,65.69
2016-09-08T10:07:09.804Z,65.88
2016-09-08T10:08:09.753Z,65.69
2016-09-08T10:09:09.997Z,65.88
2016-09-08T10:10:09.628Z,65.88
2016-09-08T10:11:09.575Z,65.78
2016-09-08T10:12:09.518Z,66.08
2016-09-08T10:13:09.450Z,66.08
2016-09-08T10:14:09.391Z,65.5
2016-09-08T10:15:09.332Z,65.59
2016-09-08T10:16:09.581Z,65.4
2016-09-08T10:17:09.217Z,65.4
2016-09-08T10:18:09.153Z,65.5
2016-09-08T10:19:09.096Z,65.4
2016-09-08T10:20:17.660Z,65.5
2016-09-08T10:21:08.978Z,65.59
2016-09-08T10:22:08.930Z,65.69
2016-09-08T10:23:08.872Z,65.59
2016-09-08T10:24:08.801Z,65.59
2016-09-08T10:25:08.742Z,65.11
2016-09-08T10:26:09.030Z,65.2
2016-09-08T10:27:08.625Z,65.11
2016-09-08T10:28:08.565Z,65.4
2016-09-08T10:29:08.507Z,64.72
2016-09-08T10:30:08.448Z,65.4
2016-09-08T10:31:08.388Z,64.72
2016-09-08T10:32:08.329Z,64.53
2016-09-08T10:33:08.275Z,64.63
2016-09-08T10:34:08.250Z,64.53
2016-09-08T10:35:08.164Z,64.34
2016-09-08T10:36:08.302Z,64.63
2016-09-08T10:37:08.045Z,64.63
2016-09-08T10:38:07.977Z,64.92
2016-09-08T10:39:07.919Z,64.92
2016-09-08T10:40:08.167Z,64.82
2016-09-08T10:41:07.801Z,64.72
2016-09-08T10:42:07.737Z,64.92
2016-09-08T10:43:07.682Z,64.72
2016-09-08T10:44:07.627Z,64.72
2016-09-08T10:45:07.916Z,64.63
2016-09-08T10:46:07.506Z,64.53
2016-09-08T10:47:07.753Z,64.53
2016-09-08T10:48:07.701Z,64.43
2016-09-08T10:49:07.343Z,64.37
2016-09-08T10:50:07.605Z,64.24
2016-09-08T10:51:07.213Z,64.47
2016-09-08T10:52:07.161Z,64.63
2016-09-08T10:53:07.095Z,64.37
2016-09-08T10:54:07.040Z,64.24
2016-09-08T10:55:06.974Z,64.53
2016-09-08T10:56:06.926Z,64.34
2016-09-08T10:57:07.175Z,64.53
2016-09-08T10:58:06.799Z,64.47
2016-09-08T10:59:06.741Z,64.18
2016-09-08T11:00:06.686Z,64.08
2016-09-08T11:01:06.620Z,63.89
2016-09-08T11:02:06.574Z,64.18
2016-09-08T11:03:06.505Z,64.18
2016-09-08T11:04:06.754Z,64.47
2016-09-08T11:05:06.387Z,64.08
2016-09-08T11:06:06.329Z,64.66
2016-09-08T11:07:06.268Z,64.85
2016-09-08T11:08:06.226Z,63.98
2016-09-08T11:09:06.153Z,64.47
2016-09-08T11:10:06.096Z,64.66
2016-09-08T11:11:06.035Z,64.66
2016-09-08T11:12:05.974Z,65.24
2016-09-08T11:13:05.928Z,65.53
2016-09-08T11:14:05.873Z,65.05
2016-09-08T11:15:05.810Z,65.14
2016-09-08T11:16:05.740Z,65.14
2016-09-08T11:17:05.681Z,65.72
2016-09-08T11:18:05.623Z,65.72
2016-09-08T11:19:05.560Z,64.85
2016-09-08T11:20:05.511Z,64.85
2016-09-08T11:21:05.453Z,63.5
2016-09-08T11:22:05.391Z,65.43
2016-09-08T11:23:05.328Z,65.34
2016-09-08T11:24:05.274Z,65.34
2016-09-08T11:25:05.525Z,64.56
2016-09-08T11:26:05.173Z,64.08
2016-09-08T11:27:05.127Z,64.18
2016-09-08T11:28:05.045Z,64.47
2016-09-08T11:29:04.979Z,65.05
2016-09-08T11:30:04.943Z,65.24
2016-09-08T11:31:04.860Z,64.76
2016-09-08T11:32:04.806Z,65.34
2016-09-08T11:33:04.745Z,65.72
2016-09-08T11:34:04.685Z,65.82
2016-09-08T11:35:04.936Z,65.34
2016-09-08T11:36:04.569Z,65.24
2016-09-08T11:37:04.517Z,65.14
2016-09-08T11:38:04.773Z,65.24
2016-09-08T11:39:04.391Z,65.05
2016-09-08T11:40:04.339Z,65.14
2016-09-08T11:41:04.274Z,65.34
2016-09-08T11:42:04.526Z,64.76
2016-09-08T11:43:04.155Z,64.27
2016-09-08T11:44:04.111Z,64.85
2016-09-08T11:45:04.058Z,65.43
2016-09-08T11:46:04.332Z,65.24
2016-09-08T11:47:03.928Z,65.53
2016-09-08T11:48:04.166Z,63.14
2016-09-08T11:49:03.810Z,63.31
2016-09-08T11:50:04.135Z,65.05
2016-09-08T11:51:03.996Z,64.18
2016-09-08T11:52:03.653Z,63.6
2016-09-08T11:53:03.585Z,63.6
2016-09-08T11:54:03.515Z,63.98
2016-09-08T11:55:03.674Z,64.08
2016-09-08T11:56:03.450Z,62.95
2016-09-08T11:57:03.359Z,62.15
2016-09-08T11:58:03.535Z,60.44
2016-09-08T11:59:03.226Z,60.53
2016-09-08T12:00:03.184Z,61.02
2016-09-08T12:01:03.275Z,61.21
2016-09-08T12:02:03.396Z,61.3
2016-09-08T12:03:02.997Z,61.02
2016-09-08T12:04:02.935Z,62.05
2016-09-08T12:05:02.922Z,62.37
2016-09-08T12:06:02.811Z,62.76
2016-09-08T12:07:02.752Z,62.76
2016-09-08T12:08:02.697Z,63.24
2016-09-08T12:09:02.636Z,62.37
2016-09-08T12:10:03.087Z,63.43
2016-09-08T12:11:02.517Z,62.85
2016-09-08T12:12:02.974Z,61.6
2016-09-08T12:13:02.409Z,62.27
2016-09-08T12:14:02.348Z,62.37
2016-09-08T12:15:02.312Z,62.37
2016-09-08T12:16:02.226Z,62.47
2016-09-08T12:17:02.189Z,62.47
2016-09-08T12:18:02.110Z,63.34
2016-09-08T12:19:02.352Z,64.59
2016-09-08T12:20:01.995Z,65.27
2016-09-08T12:21:01.949Z,65.27
2016-09-08T12:22:02.191Z,65.27
2016-09-08T12:23:02.131Z,64.89
2016-09-08T12:24:02.070Z,64.59
2016-09-08T12:25:02.001Z,63.53
2016-09-08T12:26:01.951Z,62.85
2016-09-08T12:27:01.589Z,63.82
2016-09-08T12:28:01.539Z,63.05
2016-09-08T12:29:01.475Z,63.14
2016-09-08T12:30:01.413Z,63.43
2016-09-08T12:31:01.346Z,63.63
2016-09-08T12:32:01.309Z,62.66
2016-09-08T12:33:01.556Z,63.14
2016-09-08T12:34:01.174Z,63.73
2016-09-08T12:35:01.422Z,62.85
2016-09-08T12:36:01.053Z,63.14
2016-09-08T12:37:01.009Z,63.34
2016-09-08T12:38:01.143Z,63.43
2016-09-08T12:39:00.882Z,63.43
2016-09-08T12:40:01.131Z,62.76
2016-09-08T12:41:00.763Z,62.47
2016-09-08T12:42:00.702Z,63.53
2016-09-08T12:43:00.960Z,63.05
2016-09-08T12:44:00.589Z,63.63
2016-09-08T12:45:00.529Z,64.31
2016-09-08T12:46:00.777Z,64.4
2016-09-08T12:47:00.729Z,64.11
2016-09-08T12:48:00.372Z,64.31
2016-09-08T12:49:00.301Z,62.66
2016-09-08T12:50:00.541Z,62.76
2016-09-08T12:51:00.189Z,62.76
2016-09-08T12:52:00.126Z,62.85
2016-09-08T12:53:00.090Z,63.24
2016-09-08T12:54:00.021Z,62.5